»·PEaware :: SKW3412 KPSP-KPHX

SKW3412 :: KPSP-KPHX

FLIGHT INFORMATION

Flight Status: Arrived
Operator:
SkyWest Airlines
More flights by this operator :: More flights under this callsign
Pilot: Charles D. (23067)
Aircraft: CANADAIR CL-600 CRJ-200
(CRJ2)
More flights by this aircraft type
Origin: KPSP Palm Springs Intl
United States
Destination: KPHX Phoenix Sky Harbor Intl
United States
More flights between these airports :: More routes between these airports
Route: +CATH1 PSP TRM BLH HYDRR1
File this flight plan on PilotEdge
Remarks: RMK / SIMBRIEF
Altitude:
(Current/Filed)
27,000ft
Speed:
(Current/Filed)
445kts
Departed: 06-Jan-20 09:46 AM
Arrived: 06-Jan-20 10:30 AM
Distance/Time
Traveled:
227nm/0:44
Distance/Time
To Go:
Arrived

Flight Plot

Page will automatically refresh every two minutes.

Flight plan parsing failed; only flown route is shown


Map Options




Map Legend


Flown Route
Filed Route
Departure Airport
Arrival Airport
Navaid (VOR, NDB)
Fix

Horizontal Profiles

Position Reports

Time Latitude Longitude Heading Altitude Ground
Speed
06-Jan-20 09:22 33.821262 -116.506701 316 482ft 0kts
06-Jan-20 09:23 33.821262 -116.506701 316 482ft 0kts
06-Jan-20 09:24 33.821262 -116.506701 316 482ft 0kts
06-Jan-20 09:25 33.821262 -116.506701 316 482ft 0kts
06-Jan-20 09:26 33.821262 -116.506701 316 482ft 0kts
06-Jan-20 09:27 33.821262 -116.506701 316 482ft 0kts
06-Jan-20 09:28 33.821262 -116.506701 316 482ft 0kts
06-Jan-20 09:29 33.821262 -116.506701 316 482ft 0kts
06-Jan-20 09:30 33.821262 -116.506701 316 482ft 0kts
06-Jan-20 09:31 33.821262 -116.506701 316 482ft 0kts
06-Jan-20 09:32 33.821262 -116.506701 316 482ft 0kts
06-Jan-20 09:33 33.821262 -116.506701 316 482ft 0kts
06-Jan-20 09:34 33.821262 -116.506701 316 482ft 0kts
06-Jan-20 09:35 33.821262 -116.506701 316 482ft 0kts
06-Jan-20 09:36 33.821262 -116.506701 316 482ft 0kts
06-Jan-20 09:37 33.821262 -116.506701 316 482ft 0kts
06-Jan-20 09:38 33.821418 -116.506548 60 482ft 4kts
06-Jan-20 09:39 33.819785 -116.505893 128 482ft 0kts
06-Jan-20 09:40 33.819785 -116.505893 128 482ft 0kts
06-Jan-20 09:41 33.819785 -116.505893 128 482ft 0kts
06-Jan-20 09:42 33.819438 -116.500593 136 482ft 18kts
06-Jan-20 09:43 33.818517 -116.499082 88 482ft 0kts
06-Jan-20 09:44 33.818517 -116.499082 88 482ft 0kts
06-Jan-20 09:45 33.839113 -116.516506 319 1549ft 207kts
06-Jan-20 09:46 33.898608 -116.569708 345 5811ft 263kts
06-Jan-20 09:47 33.947239 -116.517656 95 9874ft 287kts
06-Jan-20 09:48 33.887940 -116.438007 141 12526ft 370kts
06-Jan-20 09:49 33.805387 -116.356836 137 16407ft 391kts
06-Jan-20 09:50 33.729184 -116.272554 137 20817ft 417kts
06-Jan-20 09:51 33.644980 -116.170430 120 25005ft 445kts
06-Jan-20 09:52 33.625674 -116.022690 91 26999ft 463kts
06-Jan-20 09:53 33.622708 -115.867906 91 27000ft 464kts
06-Jan-20 09:54 33.619578 -115.713331 91 27000ft 465kts
06-Jan-20 09:55 33.616246 -115.558250 91 27000ft 465kts
06-Jan-20 09:56 33.612721 -115.403197 91 27000ft 465kts
06-Jan-20 09:57 33.609013 -115.248586 91 27000ft 466kts
06-Jan-20 09:58 33.605108 -115.093837 91 27000ft 466kts
06-Jan-20 09:59 33.600993 -114.938423 91 27000ft 466kts
06-Jan-20 10:00 33.596707 -114.783768 92 26999ft 466kts
06-Jan-20 10:01 33.577532 -114.665915 102 26596ft 465kts
06-Jan-20 10:02 33.541565 -114.481010 102 25365ft 460kts
06-Jan-20 10:03 33.512751 -114.334268 103 25000ft 446kts
06-Jan-20 10:04 33.486251 -114.200167 103 24991ft 381kts
06-Jan-20 10:05 33.463085 -114.083628 103 25009ft 365kts
06-Jan-20 10:06 33.437316 -113.955134 103 24195ft 412kts
06-Jan-20 10:07 33.411385 -113.826119 103 23858ft 384kts
06-Jan-20 10:08 33.386682 -113.703725 103 22350ft 375kts
06-Jan-20 10:09 33.362287 -113.583509 103 20845ft 368kts
06-Jan-20 10:10 33.338295 -113.465607 102 19345ft 363kts
06-Jan-20 10:11 33.317869 -113.348341 101 17845ft 358kts
06-Jan-20 10:12 33.298087 -113.233882 100 16336ft 341kts
06-Jan-20 10:13 33.282420 -113.125888 99 14836ft 327kts
06-Jan-20 10:14 33.275838 -113.019628 88 13880ft 311kts
06-Jan-20 10:15 33.278132 -112.919408 88 12369ft 294kts
06-Jan-20 10:17 33.282176 -112.821843 72 10867ft 297kts
06-Jan-20 10:18 33.312853 -112.735646 65 9598ft 267kts
06-Jan-20 10:19 33.342919 -112.655745 65 9191ft 260kts
06-Jan-20 10:20 33.372328 -112.578613 65 7691ft 250kts
06-Jan-20 10:21 33.400045 -112.505778 66 7597ft 236kts
06-Jan-20 10:22 33.425451 -112.433533 71 6600ft 232kts
06-Jan-20 10:23 33.428600 -112.354795 84 5595ft 233kts
06-Jan-20 10:24 33.440040 -112.284717 87 5352ft 224kts
06-Jan-20 10:25 33.440850 -112.208698 90 4240ft 225kts
06-Jan-20 10:26 33.440896 -112.145055 90 3163ft 156kts
06-Jan-20 10:27 33.440897 -112.099254 90 2355ft 130kts
06-Jan-20 10:28 33.440879 -112.055450 90 1649ft 133kts
06-Jan-20 10:29 33.440823 -112.014665 89 1140ft 83kts
06-Jan-20 10:30 33.439732 -112.004685 88 1139ft 16kts
06-Jan-20 10:31 33.439048 -111.998854 90 1139ft 23kts
06-Jan-20 10:32 33.438559 -111.992868 173 1139ft 10kts
06-Jan-20 10:33 33.436711 -111.993639 260 1139ft 4kts
06-Jan-20 10:34 33.436687 -111.993809 260 1139ft 0kts
06-Jan-20 10:35 33.436687 -111.993809 260 1139ft 0kts

Navigation Log

Ident Type
Flight plan parsing failed, navigation log unavailable